sensor_id;sensor_type;location;lat;lon;timestamp;pressure;altitude;pressure_sealevel;temperature;humidity
70458;BME280;57919;56.194;95.716;2022-09-09T00:15:42;99435.91;;;9.55;64.33
70458;BME280;57919;56.194;95.716;2022-09-09T00:36:12;99467.41;;;9.99;63.45
70458;BME280;57919;56.194;95.716;2022-09-09T01:07:18;99476.44;;;10.96;61.67
70458;BME280;57919;56.194;95.716;2022-09-09T01:17:24;99461.59;;;11.42;60.88
70458;BME280;57919;56.194;95.716;2022-09-09T01:27:40;99464.53;;;12.49;58.61
70458;BME280;57919;56.194;95.716;2022-09-09T01:37:46;99475.31;;;14.20;54.87
70458;BME280;57919;56.194;95.716;2022-09-09T01:47:49;99461.28;;;15.57;52.40
70458;BME280;57919;56.194;95.716;2022-09-09T02:19:00;99471.63;;;17.61;46.57
70458;BME280;57919;56.194;95.716;2022-09-09T02:29:17;99482.13;;;18.05;45.52
70458;BME280;57919;56.194;95.716;2022-09-09T02:39:21;99475.75;;;19.06;43.40
70458;BME280;57919;56.194;95.716;2022-09-09T03:00:07;99484.31;;;19.48;41.45
70458;BME280;57919;56.194;95.716;2022-09-09T03:10:10;99474.59;;;18.46;42.18
70458;BME280;57919;56.194;95.716;2022-09-09T03:20:12;99474.09;;;19.42;40.64
70458;BME280;57919;56.194;95.716;2022-09-09T03:30:14;99476.44;;;21.91;36.61
70458;BME280;57919;56.194;95.716;2022-09-09T03:40:17;99469.97;;;21.07;36.79
70458;BME280;57919;56.194;95.716;2022-09-09T03:50:21;99465.34;;;20.20;38.04
70458;BME280;57919;56.194;95.716;2022-09-09T04:00:23;99463.88;;;22.16;34.38
70458;BME280;57919;56.194;95.716;2022-09-09T04:10:28;99448.47;;;21.94;34.48
70458;BME280;57919;56.194;95.716;2022-09-09T04:20:32;99460.41;;;23.10;32.87
70458;BME280;57919;56.194;95.716;2022-09-09T04:30:34;99461.50;;;21.79;33.75
70458;BME280;57919;56.194;95.716;2022-09-09T04:40:37;99464.50;;;20.05;35.38
70458;BME280;57919;56.194;95.716;2022-09-09T05:01:06;99459.66;;;19.25;36.93
70458;BME280;57919;56.194;95.716;2022-09-09T05:11:20;99443.66;;;21.19;34.21
70458;BME280;57919;56.194;95.716;2022-09-09T05:21:25;99433.22;;;19.10;35.18
70458;BME280;57919;56.194;95.716;2022-09-09T05:31:29;99451.97;;;17.58;38.33
70458;BME280;57919;56.194;95.716;2022-09-09T05:41:33;99448.53;;;19.04;36.61
70458;BME280;57919;56.194;95.716;2022-09-09T05:51:38;99444.69;;;20.39;34.96
70458;BME280;57919;56.194;95.716;2022-09-09T06:01:44;99452.84;;;18.98;36.62
70458;BME280;57919;56.194;95.716;2022-09-09T06:11:55;99454.06;;;18.42;37.00
70458;BME280;57919;56.194;95.716;2022-09-09T06:21:58;99458.13;;;17.68;38.30
70458;BME280;57919;56.194;95.716;2022-09-09T06:32:03;99442.78;;;17.34;38.49
70458;BME280;57919;56.194;95.716;2022-09-09T06:42:06;99446.88;;;16.65;39.07
70458;BME280;57919;56.194;95.716;2022-09-09T06:52:26;99460.94;;;16.36;39.52
70458;BME280;57919;56.194;95.716;2022-09-09T07:02:29;99463.78;;;16.19;40.40
70458;BME280;57919;56.194;95.716;2022-09-09T07:12:33;99467.88;;;15.80;41.19
70458;BME280;57919;56.194;95.716;2022-09-09T07:22:36;99471.72;;;15.96;41.48
70458;BME280;57919;56.194;95.716;2022-09-09T07:32:38;99457.59;;;16.59;40.72
70458;BME280;57919;56.194;95.716;2022-09-09T07:42:41;99451.78;;;17.75;39.45
70458;BME280;57919;56.194;95.716;2022-09-09T07:52:43;99456.50;;;17.98;39.00
70458;BME280;57919;56.194;95.716;2022-09-09T08:02:46;99452.09;;;18.28;38.54
70458;BME280;57919;56.194;95.716;2022-09-09T08:12:48;99447.00;;;17.61;39.60
70458;BME280;57919;56.194;95.716;2022-09-09T08:22:51;99435.59;;;17.33;39.92
70458;BME280;57919;56.194;95.716;2022-09-09T08:32:54;99450.81;;;17.20;41.05
70458;BME280;57919;56.194;95.716;2022-09-09T08:43:00;99458.00;;;17.04;41.37
70458;BME280;57919;56.194;95.716;2022-09-09T09:13:43;99461.75;;;17.44;39.64
70458;BME280;57919;56.194;95.716;2022-09-09T09:24:00;99463.81;;;17.01;39.34
70458;BME280;57919;56.194;95.716;2022-09-09T09:34:08;99459.69;;;16.65;40.21
70458;BME280;57919;56.194;95.716;2022-09-09T09:44:27;99463.09;;;16.67;40.22
70458;BME280;57919;56.194;95.716;2022-09-09T09:54:34;99467.19;;;16.71;39.66
70458;BME280;57919;56.194;95.716;2022-09-09T10:04:39;99463.00;;;16.42;40.03
70458;BME280;57919;56.194;95.716;2022-09-09T10:35:30;99492.41;;;15.55;42.70
70458;BME280;57919;56.194;95.716;2022-09-09T10:55:49;99511.09;;;15.93;43.10
70458;BME280;57919;56.194;95.716;2022-09-09T11:06:00;99501.34;;;15.91;43.39
70458;BME280;57919;56.194;95.716;2022-09-09T11:16:29;99508.84;;;15.89;43.59
70458;BME280;57919;56.194;95.716;2022-09-09T11:26:38;99511.69;;;16.13;43.44
70458;BME280;57919;56.194;95.716;2022-09-09T11:47:02;99504.38;;;16.64;43.23
70458;BME280;57919;56.194;95.716;2022-09-09T11:57:05;99516.78;;;16.42;43.29
70458;BME280;57919;56.194;95.716;2022-09-09T12:17:50;99542.06;;;15.58;44.42
70458;BME280;57919;56.194;95.716;2022-09-09T12:28:00;99565.16;;;15.10;45.42
70458;BME280;57919;56.194;95.716;2022-09-09T12:38:05;99565.34;;;14.64;46.75
70458;BME280;57919;56.194;95.716;2022-09-09T12:48:14;99562.16;;;14.04;47.59
70458;BME280;57919;56.194;95.716;2022-09-09T12:58:20;99574.03;;;13.56;48.13
70458;BME280;57919;56.194;95.716;2022-09-09T13:08:23;99576.34;;;13.22;48.54
70458;BME280;57919;56.194;95.716;2022-09-09T13:18:31;99585.41;;;12.63;50.03
70458;BME280;57919;56.194;95.716;2022-09-09T13:28:36;99590.66;;;12.15;51.49
70458;BME280;57919;56.194;95.716;2022-09-09T13:38:53;99602.75;;;11.59;52.99
70458;BME280;57919;56.194;95.716;2022-09-09T13:49:02;99602.06;;;11.25;54.14
70458;BME280;57919;56.194;95.716;2022-09-09T13:59:20;99613.31;;;10.78;55.51
70458;BME280;57919;56.194;95.716;2022-09-09T14:09:22;99614.72;;;10.39;56.56
70458;BME280;57919;56.194;95.716;2022-09-09T14:19:24;99616.06;;;10.44;57.03
70458;BME280;57919;56.194;95.716;2022-09-09T14:29:26;99627.34;;;10.72;57.05
70458;BME280;57919;56.194;95.716;2022-09-09T14:39:28;99631.38;;;10.88;57.15
70458;BME280;57919;56.194;95.716;2022-09-09T14:49:30;99634.34;;;10.74;57.85
70458;BME280;57919;56.194;95.716;2022-09-09T14:59:32;99643.81;;;10.80;58.55
70458;BME280;57919;56.194;95.716;2022-09-09T15:09:35;99638.63;;;10.88;58.66
70458;BME280;57919;56.194;95.716;2022-09-09T15:19:39;99640.09;;;10.92;58.95
70458;BME280;57919;56.194;95.716;2022-09-09T15:29:41;99646.50;;;10.91;59.57
70458;BME280;57919;56.194;95.716;2022-09-09T15:39:43;99661.50;;;10.84;60.18
70458;BME280;57919;56.194;95.716;2022-09-09T15:49:45;99653.44;;;10.50;61.30
70458;BME280;57919;56.194;95.716;2022-09-09T15:59:47;99656.28;;;10.49;61.64
70458;BME280;57919;56.194;95.716;2022-09-09T16:09:49;99652.22;;;10.32;62.18
70458;BME280;57919;56.194;95.716;2022-09-09T16:19:55;99648.25;;;10.14;62.61
70458;BME280;57919;56.194;95.716;2022-09-09T16:29:59;99651.53;;;9.95;63.27
70458;BME280;57919;56.194;95.716;2022-09-09T16:40:01;99636.44;;;9.92;63.33
70458;BME280;57919;56.194;95.716;2022-09-09T16:50:05;99652.22;;;10.21;63.00
70458;BME280;57919;56.194;95.716;2022-09-09T17:00:07;99659.56;;;10.19;63.58
70458;BME280;57919;56.194;95.716;2022-09-09T17:10:10;99654.75;;;10.00;64.27
70458;BME280;57919;56.194;95.716;2022-09-09T17:20:12;99663.34;;;9.94;64.54
70458;BME280;57919;56.194;95.716;2022-09-09T17:30:13;99655.31;;;9.70;65.09
70458;BME280;57919;56.194;95.716;2022-09-09T17:40:17;99675.78;;;9.61;65.44
70458;BME280;57919;56.194;95.716;2022-09-09T17:50:21;99644.88;;;9.30;65.91
70458;BME280;57919;56.194;95.716;2022-09-09T18:00:23;99683.50;;;9.55;65.45
70458;BME280;57919;56.194;95.716;2022-09-09T18:10:25;99667.31;;;9.55;65.40
70458;BME280;57919;56.194;95.716;2022-09-09T18:20:27;99666.94;;;9.00;67.67
70458;BME280;57919;56.194;95.716;2022-09-09T18:30:29;99658.50;;;8.81;68.67
70458;BME280;57919;56.194;95.716;2022-09-09T18:40:31;99660.25;;;8.69;69.29
70458;BME280;57919;56.194;95.716;2022-09-09T18:50:33;99667.09;;;8.86;68.57
70458;BME280;57919;56.194;95.716;2022-09-09T19:00:54;99659.69;;;9.01;68.36
70458;BME280;57919;56.194;95.716;2022-09-09T19:11:00;99663.78;;;8.83;68.38
70458;BME280;57919;56.194;95.716;2022-09-09T19:21:18;99662.13;;;8.56;69.28
70458;BME280;57919;56.194;95.716;2022-09-09T19:31:20;99654.50;;;8.25;69.91
70458;BME280;57919;56.194;95.716;2022-09-09T19:41:25;99663.69;;;8.09;69.99
70458;BME280;57919;56.194;95.716;2022-09-09T19:51:29;99666.69;;;7.92;70.90
70458;BME280;57919;56.194;95.716;2022-09-09T20:01:37;99681.66;;;7.84;70.99
70458;BME280;57919;56.194;95.716;2022-09-09T20:11:40;99681.44;;;7.74;71.02
70458;BME280;57919;56.194;95.716;2022-09-09T20:21:44;99678.19;;;7.56;71.07
70458;BME280;57919;56.194;95.716;2022-09-09T20:31:47;99682.28;;;7.49;71.22
70458;BME280;57919;56.194;95.716;2022-09-09T20:41:49;99689.03;;;7.42;71.48
70458;BME280;57919;56.194;95.716;2022-09-09T20:51:52;99659.47;;;7.15;72.23
70458;BME280;57919;56.194;95.716;2022-09-09T21:01:54;99669.88;;;7.07;72.59
70458;BME280;57919;56.194;95.716;2022-09-09T21:11:57;99668.75;;;6.97;72.54
70458;BME280;57919;56.194;95.716;2022-09-09T21:21:59;99695.00;;;6.93;72.67
70458;BME280;57919;56.194;95.716;2022-09-09T21:32:01;99695.91;;;6.79;72.41
70458;BME280;57919;56.194;95.716;2022-09-09T21:42:03;99695.75;;;6.54;73.02
70458;BME280;57919;56.194;95.716;2022-09-09T21:52:06;99697.03;;;6.34;73.45
70458;BME280;57919;56.194;95.716;2022-09-09T22:02:07;99697.13;;;6.19;73.60
70458;BME280;57919;56.194;95.716;2022-09-09T22:12:10;99675.44;;;5.93;73.77
70458;BME280;57919;56.194;95.716;2022-09-09T22:22:12;99678.28;;;5.76;74.77
70458;BME280;57919;56.194;95.716;2022-09-09T22:32:14;99699.75;;;5.76;74.18
70458;BME280;57919;56.194;95.716;2022-09-09T22:42:16;99709.00;;;5.56;74.33
70458;BME280;57919;56.194;95.716;2022-09-09T22:52:18;99714.41;;;5.40;74.24
70458;BME280;57919;56.194;95.716;2022-09-09T23:02:20;99727.03;;;4.93;74.93
70458;BME280;57919;56.194;95.716;2022-09-09T23:12:22;99715.88;;;4.69;75.62
70458;BME280;57919;56.194;95.716;2022-09-09T23:22:26;99721.41;;;4.81;75.38
70458;BME280;57919;56.194;95.716;2022-09-09T23:32:28;99717.44;;;4.89;75.37
70458;BME280;57919;56.194;95.716;2022-09-09T23:42:29;99728.59;;;4.97;75.94
70458;BME280;57919;56.194;95.716;2022-09-09T23:52:34;99694.97;;;4.75;76.51
